Impacts TAF Board INFO
FOR SITUATIONAL AWARENESS. NOT TO BE USED FOR FLIGHT PLANNING PURPOSES.
IDs:

KDTW - Detroit Metro/Wayne, MI, US

Issued at 0306 UTC 12 Dec 2017
Updated at 0448 UTC 12 Dec 2017
Potential Impact None Slight Moderate High
Time<<13/05Z 13/06Z 13/07Z 13/08Z 13/09Z 13/10Z 13/11Z 13/12Z 13/13Z 13/14Z 13/15Z 13/16Z 13/17Z
Type PRVL
VIS >6
CIG --
Cover SCT
FltCat VFR
WX --
WDir 300
WSpd 12
WGst --

Raw TAF
KDTW 120306Z 1203/1306 VRB04KT 1 1/2SM -SN OVC013
  FM120500 VRB04KT 3SM -SN OVC015
  FM120700 28010KT 6SM -SHSN BKN025 OVC035
  FM121000 30018G30KT P6SM OVC040
  FM130100 30012KT P6SM SCT035


METAR Board
Radar Display
Forecast Discussion

FOR SITUATIONAL AWARENESS. NOT TO BE USED FOR FLIGHT PLANNING PURPOSES.